Riverton, Louisiana
Current Conditions -  °F | °C
As of 5:53 AM on Sunday 21 Dec 2014 (Local Time) from KMLU Reporting Station
Clear Clear  
Wind Chill: 35°   Ceiling: Unl
Heat Index: 35°   Visibility: 3mi
Dew Point: 34°   Wind: 3mph
Humidity: 96%   Direction: 50°NE
Pressure: 30.17"   Gusts: NA
Location:  32.1631°N, 92.1971°W
Report Text: KMLU 211153Z AUTO 05003KT 3SM CLR 02/01 A3017 RMK AO2 SLP215 T00170011 10050 20017 56008
Loading
Personal Weather Stations






























Interactive Weather Map New forecast layout! Learn more

10-Day Weather Forecast

Advertisements
Track Severe Weather on mobile